Time;durP1;ratioP1;P1;durP2;ratioP2;P2;SDS_P1;SDS_P2;PMS_P1;PMS_P2;Temp;Humidity;BMP_temperature;BMP_pressure;BME280_temperature;BME280_humidity;BME280_pressure;Samples;Min_cycle;Max_cycle;Signal;HPM_P1;HPM_P2
2021/05/13 00:01:51;;;;;;;1.00;0.80;;;11.20;82.10;;;;;;5078233;28;20035;-79
2021/05/13 00:04:17;;;;;;;1.48;0.70;;;11.20;81.90;;;;;;5096984;28;20498;-79
2021/05/13 00:06:43;;;;;;;2.38;0.80;;;11.30;81.40;;;;;;5082737;28;20407;-79
2021/05/13 00:09:10;;;;;;;1.65;1.08;;;11.30;81.20;;;;;;5078813;28;20053;-79
2021/05/13 00:11:38;;;;;;;2.22;0.90;;;11.40;81.30;;;;;;5078433;28;20021;-80
2021/05/13 00:14:06;;;;;;;2.13;0.95;;;11.40;81.50;;;;;;5078229;28;20153;-79
2021/05/13 00:16:34;;;;;;;1.20;0.82;;;11.40;80.80;;;;;;5078179;28;20031;-79
2021/05/13 00:19:08;;;;;;;1.88;0.80;;;11.50;80.80;;;;;;5078574;28;20036;-79
2021/05/13 00:21:35;;;;;;;1.73;1.20;;;11.50;81.30;;;;;;5078268;28;20102;-80
2021/05/13 00:24:01;;;;;;;2.53;1.13;;;11.60;81.50;;;;;;5078051;28;20468;-79
2021/05/13 00:26:46;;;;;;;1.42;0.93;;;11.60;81.10;;;;;;5093462;28;20024;-79
2021/05/13 00:29:15;;;;;;;1.02;0.75;;;11.60;81.00;;;;;;5097080;28;20405;-79
2021/05/13 00:31:42;;;;;;;1.90;1.10;;;11.60;80.40;;;;;;5081512;28;20086;-78
2021/05/13 00:34:08;;;;;;;1.88;1.20;;;11.60;81.10;;;;;;5078114;28;20080;-80
2021/05/13 00:36:36;;;;;;;2.13;1.00;;;11.60;81.30;;;;;;5077949;28;20463;-80
2021/05/13 00:39:04;;;;;;;1.35;0.80;;;11.50;80.50;;;;;;5077997;28;20082;-79
2021/05/13 00:41:30;;;;;;;3.50;1.27;;;11.50;80.50;;;;;;5083165;28;20039;-80
2021/05/13 00:43:56;;;;;;;1.33;0.90;;;11.60;80.50;;;;;;5098042;28;20032;-79
2021/05/13 00:46:23;;;;;;;1.38;1.02;;;11.60;80.60;;;;;;5096724;28;20020;-80
2021/05/13 00:49:03;;;;;;;2.40;1.10;;;11.50;80.70;;;;;;5095303;28;20547;-79
2021/05/13 00:51:29;;;;;;;3.27;1.10;;;11.60;80.60;;;;;;5098082;28;20027;-79
2021/05/13 00:53:56;;;;;;;2.95;1.00;;;11.60;81.10;;;;;;5091623;28;20021;-79
2021/05/13 00:56:23;;;;;;;1.98;1.10;;;11.60;81.30;;;;;;5077604;28;20430;-79
2021/05/13 00:58:51;;;;;;;1.38;1.00;;;11.50;81.00;;;;;;5077581;28;20044;-79
2021/05/13 01:01:18;;;;;;;1.70;0.90;;;11.50;81.20;;;;;;5080340;28;20028;-79
2021/05/13 01:03:44;;;;;;;2.65;1.10;;;11.40;81.70;;;;;;5097563;28;20088;-80
2021/05/13 01:06:12;;;;;;;2.28;1.00;;;11.50;82.20;;;;;;5097774;28;20398;-80
2021/05/13 01:08:38;;;;;;;1.98;1.25;;;11.50;81.60;;;;;;5079819;28;20033;-79
2021/05/13 01:11:04;;;;;;;4.97;1.20;;;11.50;81.70;;;;;;5077301;28;20027;-79
2021/05/13 01:13:33;;;;;;;1.90;1.23;;;11.60;81.20;;;;;;5077318;28;20017;-79
2021/05/13 01:16:23;;;;;;;3.72;1.20;;;11.50;81.60;;;;;;5077328;28;20481;-79
2021/05/13 01:18:49;;;;;;;1.55;1.00;;;11.50;81.70;;;;;;5076018;28;20032;-79
2021/05/13 01:21:14;;;;;;;2.58;1.23;;;11.50;81.90;;;;;;5083907;28;20154;-80
2021/05/13 01:23:42;;;;;;;3.13;1.08;;;11.50;81.80;;;;;;5095952;28;20025;-79
2021/05/13 01:26:08;;;;;;;2.17;0.93;;;11.40;82.70;;;;;;5082252;28;20039;-80
2021/05/13 01:28:36;;;;;;;1.75;0.80;;;11.50;81.70;;;;;;5076927;28;20078;-79
2021/05/13 08:14:06;;;;;;;2.00;0.60;;;13.80;83.40;;;;;;5067225;28;20394;-76
2021/05/13 08:16:32;;;;;;;1.30;0.77;;;13.80;83.70;;;;;;5069155;28;20028;-75
2021/05/13 08:18:58;;;;;;;1.95;0.80;;;14.00;82.60;;;;;;5068643;28;20464;-79
2021/05/13 08:21:23;;;;;;;2.40;0.90;;;14.30;81.30;;;;;;5068872;28;20028;-76
2021/05/13 08:23:49;;;;;;;3.53;1.02;;;14.70;80.50;;;;;;5070181;28;20146;-76
2021/05/13 08:26:15;;;;;;;2.58;1.25;;;15.10;80.40;;;;;;5069911;28;20029;-75
2021/05/13 08:28:40;;;;;;;1.05;0.60;;;15.10;77.20;;;;;;5066782;28;20631;-76
2021/05/13 08:31:06;;;;;;;3.03;0.85;;;15.20;77.20;;;;;;5070105;28;20557;-76
2021/05/13 08:33:31;;;;;;;2.25;0.80;;;15.20;75.30;;;;;;5070966;28;20637;-76
2021/05/13 08:35:57;;;;;;;2.42;0.70;;;15.20;75.90;;;;;;5071708;28;20438;-75
2021/05/13 08:38:23;;;;;;;2.85;1.00;;;15.20;75.40;;;;;;5073955;28;20032;-76
2021/05/13 08:40:48;;;;;;;2.13;0.82;;;15.20;76.30;;;;;;5070958;28;20056;-75
2021/05/13 08:43:24;;;;;;;1.13;0.63;;;15.30;75.90;;;;;;5068207;28;20032;-75
2021/05/13 08:45:52;;;;;;;1.45;0.77;;;15.20;75.50;;;;;;5067846;28;20029;-75
2021/05/13 08:48:17;;;;;;;1.98;0.82;;;15.30;76.20;;;;;;5064766;28;20032;-76
2021/05/13 08:50:43;;;;;;;2.25;0.70;;;15.70;75.70;;;;;;5072185;28;20043;-75
2021/05/13 08:53:09;;;;;;;1.63;0.80;;;15.90;72.70;;;;;;5073552;28;20060;-75
2021/05/13 08:55:35;;;;;;;1.90;0.73;;;15.90;74.00;;;;;;5082148;28;20033;-76
2021/05/13 08:58:00;;;;;;;2.83;0.88;;;15.90;72.40;;;;;;5066425;28;20051;-76
2021/05/13 09:00:26;;;;;;;1.95;0.90;;;15.90;73.70;;;;;;5065174;28;20028;-75
2021/05/13 09:02:52;;;;;;;4.38;0.95;;;16.30;73.20;;;;;;5076293;28;20052;-75
2021/05/13 09:05:18;;;;;;;1.48;0.73;;;16.30;71.30;;;;;;5063385;28;20047;-75
2021/05/13 09:07:44;;;;;;;1.48;0.75;;;16.40;71.40;;;;;;5042511;28;20029;-76
2021/05/13 09:10:12;;;;;;;1.38;0.60;;;16.40;71.60;;;;;;5054414;28;20045;-75
2021/05/13 09:12:41;;;;;;;1.92;0.88;;;16.50;71.10;;;;;;5042253;28;20550;-76
2021/05/13 09:15:13;;;;;;;3.15;0.90;;;16.40;71.30;;;;;;5052792;28;20038;-76
2021/05/13 09:17:41;;;;;;;2.58;0.70;;;16.10;72.30;;;;;;5042504;28;20128;-75
2021/05/13 09:20:29;;;;;;;1.15;0.50;;;16.10;72.90;;;;;;5054357;28;20595;-76
2021/05/13 09:23:14;;;;;;;2.03;0.70;;;16.20;72.90;;;;;;5040736;28;20040;-76
2021/05/13 09:25:42;;;;;;;1.70;0.50;;;16.60;69.80;;;;;;5023262;28;20050;-77
2021/05/13 09:28:08;;;;;;;1.83;0.68;;;16.90;67.90;;;;;;5014856;28;20029;-77
2021/05/13 09:30:35;;;;;;;0.80;0.50;;;;;;;;;;5016581;28;20074;-76
2021/05/13 09:33:02;;;;;;;1.70;0.50;;;18.00;66.40;;;;;;5013995;28;20030;-81
2021/05/13 09:35:32;;;;;;;1.13;0.45;;;;;;;;;;5015619;28;20026;-78
2021/05/13 09:38:01;;;;;;;;;;;;;;;;;;5014938;28;20109;-78
2021/05/13 09:40:37;;;;;;;1.30;0.40;;;;;;;;;;5015034;28;19916;-79
2021/05/13 09:43:12;;;;;;;0.93;0.43;;;20.20;58.80;;;;;;5010125;28;20030;-78
2021/05/13 09:45:44;;;;;;;1.55;0.40;;;;;;;;;;5012534;28;20132;-77
2021/05/13 09:48:10;;;;;;;1.42;0.60;;;;;;;;;;5011780;28;20083;-78
2021/05/13 09:50:36;;;;;;;1.20;0.40;;;;;;;;;;5009093;28;20019;-77
2021/05/13 09:53:03;;;;;;;1.60;0.40;;;;;;;;;;5019930;28;20041;-77
2021/05/13 09:55:30;;;;;;;0.80;0.38;;;;;;;;;;5011397;28;20024;-77
2021/05/13 09:57:59;;;;;;;1.27;0.25;;;;;;;;;;5013585;28;20042;-77
2021/05/13 10:00:42;;;;;;;1.55;0.40;;;22.60;54.00;;;;;;5010619;28;20563;-77
2021/05/13 10:03:12;;;;;;;1.50;0.60;;;;;;;;;;5016398;28;20029;-77
2021/05/13 10:05:39;;;;;;;1.85;0.55;;;;;;;;;;4982136;28;20110;-77
2021/05/13 10:08:05;;;;;;;1.30;0.47;;;;;;;;;;5013587;28;20042;-77
2021/05/13 10:10:31;;;;;;;1.48;0.52;;;;;;;;;;5012117;28;20472;-78
2021/05/13 10:12:58;;;;;;;1.25;0.40;;;;;;;;;;5012679;28;20082;-77
2021/05/13 10:15:26;;;;;;;0.80;0.25;;;;;;;;;;5015096;28;20084;-77
2021/05/13 10:17:54;;;;;;;0.50;0.20;;;;;;;;;;5016473;28;20049;-77
2021/05/13 10:20:21;;;;;;;1.60;0.40;;;;;;;;;;5016613;28;20385;-77
2021/05/13 10:22:48;;;;;;;1.23;0.30;;;21.90;48.70;;;;;;5006879;28;20025;-77
2021/05/13 10:25:22;;;;;;;0.70;0.28;;;22.70;44.90;;;;;;5013222;28;20053;-77
2021/05/13 10:27:53;;;;;;;0.60;0.30;;;21.90;46.70;;;;;;5025608;28;20030;-77
2021/05/13 10:30:28;;;;;;;0.73;0.28;;;21.10;48.80;;;;;;5017688;28;20030;-77
2021/05/13 10:33:10;;;;;;;0.98;0.30;;;21.10;51.40;;;;;;5015322;28;20496;-77
2021/05/13 10:35:37;;;;;;;0.63;0.30;;;21.00;51.00;;;;;;5012592;28;20026;-77
2021/05/13 10:38:10;;;;;;;1.27;0.52;;;20.70;49.50;;;;;;5019584;28;20079;-76
2021/05/13 10:43:07;;;;;;;0.63;0.28;;;20.40;50.90;;;;;;5013452;28;20837;-77
2021/05/13 10:45:40;;;;;;;0.85;0.32;;;20.50;50.70;;;;;;5013032;28;20030;-78
2021/05/13 10:48:22;;;;;;;1.13;0.50;;;20.50;51.30;;;;;;5015374;28;20175;-77
2021/05/13 10:51:01;;;;;;;0.63;0.30;;;20.70;51.20;;;;;;5010862;28;20058;-78
2021/05/13 10:53:33;;;;;;;0.63;0.30;;;20.80;50.90;;;;;;5006544;28;20120;-77
2021/05/13 10:56:19;;;;;;;1.13;0.25;;;20.60;52.00;;;;;;5011095;28;20045;-78
2021/05/13 10:59:20;;;;;;;1.50;0.40;;;20.50;50.30;;;;;;4996412;28;20033;-76
2021/05/13 11:01:51;;;;;;;0.60;0.30;;;20.20;51.00;;;;;;5023878;28;20107;-77
2021/05/13 11:04:22;;;;;;;0.68;0.32;;;20.30;52.50;;;;;;5012897;28;20034;-78
2021/05/13 11:06:59;;;;;;;0.73;0.30;;;20.70;52.80;;;;;;5013120;28;20037;-78
2021/05/13 11:12:20;;;;;;;0.55;0.20;;;20.80;51.80;;;;;;5014857;28;20058;-77
2021/05/13 11:15:04;;;;;;;1.27;0.60;;;20.50;49.70;;;;;;5011636;28;20084;-79
2021/05/13 11:20:25;;;;;;;0.70;0.32;;;20.30;50.10;;;;;;5015522;28;20143;-80
2021/05/13 11:23:01;;;;;;;1.48;0.32;;;20.40;49.90;;;;;;5015089;28;20102;-80
2021/05/13 11:25:33;;;;;;;1.23;0.30;;;20.30;51.30;;;;;;5009643;28;20029;-79
2021/05/13 11:27:59;;;;;;;0.82;0.45;;;20.20;49.70;;;;;;5013478;28;20049;-80
2021/05/13 11:30:27;;;;;;;1.42;0.47;;;20.40;51.70;;;;;;5012153;28;20465;-77
2021/05/13 11:32:54;;;;;;;0.40;0.20;;;20.50;52.10;;;;;;5015091;28;20088;-76
2021/05/13 11:35:22;;;;;;;1.17;0.20;;;20.50;51.10;;;;;;5014944;28;20021;-78
2021/05/13 11:37:51;;;;;;;1.65;0.30;;;20.20;50.90;;;;;;5019219;28;20105;-79
2021/05/13 11:40:43;;;;;;;0.40;0.20;;;20.20;51.60;;;;;;5012982;28;20060;-81
2021/05/13 11:43:39;;;;;;;1.65;0.63;;;20.20;52.60;;;;;;5012747;28;20099;-83
2021/05/13 11:46:10;;;;;;;1.33;0.70;;;20.30;53.60;;;;;;5011158;28;20151;-83
2021/05/13 11:48:39;;;;;;;0.65;0.22;;;20.20;51.30;;;;;;5014627;28;20432;-77
2021/05/13 11:51:14;;;;;;;0.65;0.40;;;20.30;51.80;;;;;;5013740;28;20054;-77
2021/05/13 11:53:42;;;;;;;1.10;0.30;;;20.10;51.80;;;;;;5015189;28;20504;-78
2021/05/13 11:56:08;;;;;;;1.08;0.45;;;20.10;51.10;;;;;;5015093;28;20393;-78
2021/05/13 11:58:51;;;;;;;0.47;0.20;;;20.00;49.60;;;;;;5015017;28;20029;-77
2021/05/13 12:01:20;;;;;;;2.58;0.50;;;20.00;50.90;;;;;;5009291;28;20034;-78
2021/05/13 12:03:47;;;;;;;1.15;0.30;;;20.20;52.30;;;;;;5014587;28;20057;-78
2021/05/13 12:06:13;;;;;;;0.65;0.30;;;20.30;50.60;;;;;;5012943;28;20025;-78
2021/05/13 12:08:39;;;;;;;1.67;0.40;;;20.40;52.30;;;;;;5014832;28;20029;-77
2021/05/13 12:11:22;;;;;;;1.13;0.25;;;20.30;51.30;;;;;;5010580;28;20392;-78
2021/05/13 12:13:49;;;;;;;0.73;0.30;;;20.20;50.10;;;;;;5009884;28;20072;-78
2021/05/13 12:16:16;;;;;;;1.23;0.30;;;20.20;50.60;;;;;;5013974;28;20393;-78
2021/05/13 12:18:44;;;;;;;1.05;0.40;;;20.40;51.70;;;;;;5014904;28;20117;-77
2021/05/13 12:21:13;;;;;;;1.08;0.30;;;20.40;50.40;;;;;;5015288;28;20018;-78
2021/05/13 12:23:40;;;;;;;0.75;0.30;;;20.50;50.30;;;;;;5013018;28;20034;-78
2021/05/13 12:26:07;;;;;;;0.70;0.30;;;20.70;52.40;;;;;;5009609;28;20030;-78
2021/05/13 12:28:34;;;;;;;0.80;0.30;;;20.60;50.30;;;;;;5014677;28;20037;-78
2021/05/13 12:30:59;;;;;;;1.70;0.30;;;20.60;50.80;;;;;;5015262;28;20026;-76
2021/05/13 12:33:28;;;;;;;1.20;0.50;;;20.50;49.80;;;;;;5001997;28;20044;-81
2021/05/13 12:35:54;;;;;;;0.65;0.20;;;20.70;52.80;;;;;;4998302;28;20014;-76
2021/05/13 12:38:22;;;;;;;1.10;0.30;;;20.90;51.30;;;;;;5015078;28;20472;-78
2021/05/13 12:41:05;;;;;;;0.77;0.22;;;20.90;49.00;;;;;;5008756;28;20108;-78
2021/05/13 12:43:30;;;;;;;0.95;0.55;;;20.70;49.20;;;;;;5006524;28;20029;-78
2021/05/13 12:45:56;;;;;;;2.30;0.30;;;20.90;49.90;;;;;;5010277;28;20033;-78
2021/05/13 12:48:22;;;;;;;0.88;0.30;;;21.10;49.40;;;;;;5007239;28;20034;-77
2021/05/13 12:51:09;;;;;;;1.40;0.32;;;21.20;46.90;;;;;;5008839;28;20025;-78
2021/05/13 12:53:44;;;;;;;0.82;0.35;;;21.00;48.10;;;;;;5009411;28;20030;-78
2021/05/13 12:56:26;;;;;;;2.15;0.30;;;20.60;49.70;;;;;;5009365;28;20100;-78
2021/05/13 12:59:10;;;;;;;1.17;0.40;;;20.40;51.00;;;;;;5007583;28;21620;-78
2021/05/13 13:01:38;;;;;;;1.95;0.35;;;20.80;52.80;;;;;;5014108;28;20053;-78
2021/05/13 13:04:06;;;;;;;1.27;0.22;;;21.00;53.10;;;;;;5012317;28;20080;-76
2021/05/13 13:06:33;;;;;;;0.40;0.20;;;21.20;52.30;;;;;;5012020;28;20634;-78
2021/05/13 13:08:59;;;;;;;0.70;0.30;;;20.90;49.80;;;;;;5012239;28;20026;-78
2021/05/13 13:11:39;;;;;;;1.40;0.40;;;20.90;50.10;;;;;;5010137;28;20033;-79
2021/05/13 13:14:24;;;;;;;1.88;0.50;;;20.60;49.60;;;;;;5010016;28;20492;-76
2021/05/13 13:16:50;;;;;;;1.98;0.43;;;20.40;51.50;;;;;;5015177;28;20389;-77
2021/05/13 13:19:16;;;;;;;2.30;0.50;;;20.20;53.70;;;;;;5014795;28;20112;-77
2021/05/13 13:21:58;;;;;;;2.58;0.57;;;20.00;56.90;;;;;;5014046;28;20021;-77
2021/05/13 13:24:24;;;;;;;1.92;0.45;;;19.80;56.00;;;;;;5015576;28;20025;-76
2021/05/13 13:27:00;;;;;;;3.42;0.80;;;19.60;58.80;;;;;;5015475;28;20560;-76
2021/05/13 13:29:27;;;;;;;3.95;0.90;;;19.00;68.80;;;;;;5016362;28;20520;-76
2021/05/13 13:32:04;;;;;;;1.42;0.50;;;18.40;80.00;;;;;;5015460;28;20128;-77
2021/05/13 13:34:38;;;;;;;1.75;0.60;;;18.00;72.30;;;;;;5015453;28;20500;-76
2021/05/13 13:37:04;;;;;;;2.03;0.70;;;18.00;70.70;;;;;;5020949;28;20025;-81
2021/05/13 13:39:30;;;;;;;1.38;0.65;;;17.90;70.90;;;;;;5012376;28;20077;-84
2021/05/13 13:41:58;;;;;;;3.15;0.75;;;17.70;71.00;;;;;;5003257;28;20496;-85
2021/05/13 13:44:24;;;;;;;1.25;0.63;;;17.90;71.80;;;;;;5012322;28;20026;-85
2021/05/13 13:46:51;;;;;;;1.70;0.70;;;18.20;70.80;;;;;;4997849;28;20498;-85
2021/05/13 13:49:16;;;;;;;2.05;0.82;;;18.30;68.60;;;;;;5030618;28;20021;-85
2021/05/13 13:51:42;;;;;;;2.58;0.70;;;18.40;71.00;;;;;;5017027;28;20026;-84
2021/05/13 13:54:08;;;;;;;1.48;0.60;;;18.30;70.90;;;;;;5011642;28;20178;-83
2021/05/13 13:56:33;;;;;;;1.55;0.55;;;18.30;71.60;;;;;;5007675;28;20029;-84
2021/05/13 13:58:59;;;;;;;1.95;0.60;;;18.30;72.30;;;;;;5017109;28;20093;-84
2021/05/13 14:01:25;;;;;;;1.10;0.52;;;18.20;73.60;;;;;;5016273;28;20021;-84
2021/05/13 14:03:50;;;;;;;3.13;0.73;;;18.10;74.20;;;;;;5016199;28;20105;-84
2021/05/13 14:06:16;;;;;;;2.55;0.88;;;18.10;74.40;;;;;;5017233;28;20053;-84
2021/05/13 14:08:41;;;;;;;2.45;0.88;;;18.20;74.00;;;;;;5016539;28;20022;-84
2021/05/13 14:11:07;;;;;;;2.08;0.80;;;18.00;74.20;;;;;;5015058;28;20161;-84
2021/05/13 14:13:33;;;;;;;1.10;0.70;;;18.00;74.90;;;;;;5013953;28;20054;-85
2021/05/13 14:15:58;;;;;;;1.02;0.57;;;18.00;74.60;;;;;;5014169;28;20084;-84
2021/05/13 14:18:25;;;;;;;1.10;0.57;;;18.10;72.60;;;;;;5011706;28;20444;-84
2021/05/13 14:20:50;;;;;;;1.30;0.60;;;18.00;71.10;;;;;;5014694;28;20029;-84
2021/05/13 14:23:16;;;;;;;1.83;0.63;;;18.00;70.70;;;;;;5015598;28;20500;-84
2021/05/13 14:25:42;;;;;;;1.25;0.40;;;17.70;68.80;;;;;;5015760;28;20499;-84
2021/05/13 14:28:07;;;;;;;1.60;0.63;;;17.60;72.10;;;;;;5015376;28;20590;-84
2021/05/13 14:30:34;;;;;;;2.30;0.60;;;17.60;72.50;;;;;;5016828;28;20033;-83
2021/05/13 14:32:59;;;;;;;2.33;0.40;;;17.60;72.80;;;;;;5015370;28;20026;-84
2021/05/13 14:35:28;;;;;;;1.42;0.50;;;17.70;72.60;;;;;;5016640;28;20032;-85
2021/05/13 14:37:58;;;;;;;0.57;0.45;;;17.70;72.10;;;;;;5027484;28;20075;-84
2021/05/13 14:40:25;;;;;;;1.10;0.40;;;17.80;70.00;;;;;;5014311;28;20087;-84
2021/05/13 14:42:51;;;;;;;1.10;0.50;;;17.90;70.50;;;;;;5015584;28;20037;-84
2021/05/13 14:45:17;;;;;;;1.17;0.50;;;17.90;70.50;;;;;;5012867;28;20555;-79
2021/05/13 14:47:51;;;;;;;0.50;0.30;;;18.00;68.90;;;;;;5015526;28;20113;-85
2021/05/13 14:50:23;;;;;;;1.42;0.40;;;18.10;69.50;;;;;;5015958;28;20059;-82
2021/05/13 14:52:48;;;;;;;0.93;0.50;;;18.40;71.90;;;;;;5012725;28;20030;-81
2021/05/13 14:55:14;;;;;;;0.80;0.30;;;18.70;72.70;;;;;;5011720;28;20033;-84
2021/05/13 14:57:48;;;;;;;0.60;0.30;;;18.90;70.80;;;;;;5017920;28;20025;-81
2021/05/13 15:00:19;;;;;;;0.70;0.28;;;18.90;66.40;;;;;;5010214;28;20441;-90
2021/05/13 15:02:44;;;;;;;0.68;0.30;;;18.50;66.80;;;;;;5007750;28;20033;-85
2021/05/13 15:05:11;;;;;;;0.80;0.30;;;18.30;65.40;;;;;;5014187;28;20045;-81
2021/05/13 15:07:36;;;;;;;1.65;0.43;;;18.50;68.60;;;;;;5014357;28;20470;-80
2021/05/13 15:10:03;;;;;;;0.68;0.30;;;18.60;68.90;;;;;;5012360;28;20057;-82
2021/05/13 15:12:28;;;;;;;0.68;0.40;;;18.70;67.10;;;;;;5013682;28;20057;-85
2021/05/13 15:14:54;;;;;;;1.45;0.50;;;18.80;69.60;;;;;;5013650;28;20342;-87
2021/05/13 15:17:20;;;;;;;0.35;0.30;;;18.80;68.00;;;;;;5012692;28;20022;-86
2021/05/13 15:19:49;;;;;;;0.47;0.30;;;18.90;68.80;;;;;;5011918;28;20026;-86
2021/05/13 15:22:15;;;;;;;0.47;0.20;;;18.90;65.90;;;;;;5013826;28;20026;-84
2021/05/13 15:24:40;;;;;;;2.17;0.77;;;18.70;62.10;;;;;;5010985;28;20029;-88
2021/05/13 15:27:06;;;;;;;1.10;0.32;;;18.40;66.30;;;;;;5008543;28;20026;-82
2021/05/13 15:29:32;;;;;;;1.70;0.50;;;18.30;65.10;;;;;;4995801;28;20034;-89
2021/05/13 15:31:59;;;;;;;0.90;0.50;;;18.30;66.80;;;;;;4995660;28;20022;-86
2021/05/13 15:34:25;;;;;;;1.17;0.45;;;18.40;67.40;;;;;;4994949;28;20026;-81
2021/05/13 15:36:51;;;;;;;1.15;0.57;;;18.60;66.50;;;;;;5016536;28;20022;-87
2021/05/13 15:39:17;;;;;;;0.85;0.40;;;18.50;66.50;;;;;;5015225;28;20370;-87
2021/05/13 15:41:43;;;;;;;0.93;0.40;;;18.60;67.00;;;;;;5013537;28;20011;-81
2021/05/13 15:44:08;;;;;;;0.68;0.35;;;18.60;66.30;;;;;;5013821;28;20045;-87
2021/05/13 15:46:34;;;;;;;0.50;0.30;;;18.60;67.90;;;;;;5011156;28;20025;-86
2021/05/13 15:49:00;;;;;;;0.70;0.40;;;18.50;67.70;;;;;;5012083;28;20026;-85
2021/05/13 15:51:26;;;;;;;0.45;0.30;;;18.40;68.70;;;;;;5015033;28;20109;-86
2021/05/13 15:53:52;;;;;;;1.00;0.40;;;18.20;68.30;;;;;;5015284;28;20033;-87
2021/05/13 15:56:18;;;;;;;0.47;0.30;;;18.10;68.30;;;;;;5012444;28;20034;-86
2021/05/13 15:58:44;;;;;;;1.35;0.50;;;17.90;68.90;;;;;;5014763;28;20040;-87
2021/05/13 16:01:09;;;;;;;0.98;0.40;;;17.80;69.90;;;;;;5014500;28;20030;-86
2021/05/13 16:03:35;;;;;;;2.53;0.60;;;17.90;70.80;;;;;;5014301;28;20092;-85
2021/05/13 16:06:01;;;;;;;0.60;0.40;;;17.80;72.00;;;;;;5013143;28;20080;-86
2021/05/13 16:08:26;;;;;;;0.68;0.40;;;17.80;71.40;;;;;;5014936;28;20046;-87
2021/05/13 16:13:33;;;;;;;1.05;0.50;;;18.10;71.80;;;;;;5012947;28;20053;-87
2021/05/13 16:16:00;;;;;;;1.27;0.40;;;18.30;71.50;;;;;;5005438;28;20121;-86
2021/05/13 16:18:25;;;;;;;1.10;0.30;;;18.30;68.80;;;;;;5010129;28;20033;-87
2021/05/13 16:20:51;;;;;;;1.42;0.60;;;18.40;70.10;;;;;;5013590;28;20523;-86
2021/05/13 16:23:17;;;;;;;1.33;0.55;;;18.40;70.30;;;;;;5034252;28;20029;-85
2021/05/13 16:25:43;;;;;;;1.20;0.50;;;18.60;68.80;;;;;;5013902;28;20026;-88
2021/05/13 16:28:08;;;;;;;0.70;0.40;;;18.80;68.10;;;;;;5007721;28;20037;-87
2021/05/13 16:30:35;;;;;;;1.00;0.47;;;18.90;67.30;;;;;;5008978;28;20030;-87
2021/05/13 16:33:00;;;;;;;1.20;0.35;;;18.90;68.60;;;;;;5009894;28;20061;-87
2021/05/13 16:35:26;;;;;;;2.08;0.60;;;18.90;69.00;;;;;;5017189;28;20034;-87
2021/05/13 16:37:52;;;;;;;2.05;0.50;;;18.70;66.70;;;;;;5030824;28;20088;-88
2021/05/13 16:40:18;;;;;;;1.70;0.70;;;18.60;62.80;;;;;;5030762;28;20022;-89
2021/05/13 16:42:43;;;;;;;2.45;0.60;;;18.60;62.80;;;;;;5017571;28;20058;-88
2021/05/13 16:45:11;;;;;;;2.22;0.70;;;18.60;63.60;;;;;;5010882;28;20030;-88
2021/05/13 16:47:37;;;;;;;1.25;0.47;;;18.50;59.10;;;;;;5018750;28;20026;-89
2021/05/13 16:50:05;;;;;;;1.85;0.68;;;18.40;60.00;;;;;;5018316;28;20022;-88
2021/05/13 16:52:32;;;;;;;1.27;0.65;;;18.20;57.80;;;;;;5014178;28;20068;-89
2021/05/13 16:54:57;;;;;;;1.90;0.75;;;18.10;59.10;;;;;;5013764;28;20497;-87
2021/05/13 16:57:23;;;;;;;3.40;0.93;;;18.00;59.70;;;;;;5012310;28;20280;-82
2021/05/13 16:59:49;;;;;;;1.10;0.60;;;18.00;59.60;;;;;;5007556;28;20026;-87
2021/05/13 17:02:14;;;;;;;2.47;0.60;;;18.10;59.70;;;;;;5015255;28;20169;-88
2021/05/13 17:05:05;;;;;;;1.73;0.80;;;17.90;59.30;;;;;;5015521;28;20026;-84
2021/05/13 17:07:26;;;;;;;2.92;0.80;;;17.80;60.10;;;;;;5015863;28;20037;-84
2021/05/13 17:09:53;;;;;;;3.33;0.93;;;17.80;58.70;;;;;;5016130;28;20025;-87
2021/05/13 17:12:20;;;;;;;1.40;0.60;;;17.80;58.60;;;;;;5017091;28;20056;-86
2021/05/13 17:14:46;;;;;;;1.58;0.80;;;17.80;58.80;;;;;;5017014;28;20552;-88
2021/05/13 17:17:12;;;;;;;1.50;0.57;;;17.80;58.80;;;;;;5014165;28;20033;-85
2021/05/13 17:19:38;;;;;;;3.67;0.70;;;17.80;58.20;;;;;;5016347;28;20033;-83
2021/05/13 17:22:04;;;;;;;3.30;0.80;;;17.70;57.40;;;;;;5016515;28;20029;-85
2021/05/13 17:24:29;;;;;;;2.35;1.10;;;17.60;57.90;;;;;;5012941;28;20029;-83
2021/05/13 17:26:55;;;;;;;2.08;0.90;;;17.50;57.90;;;;;;5015986;28;20038;-79
2021/05/13 17:29:22;;;;;;;3.42;0.80;;;17.40;59.00;;;;;;5003342;28;20049;-81
2021/05/13 17:31:47;;;;;;;2.33;0.80;;;17.40;58.70;;;;;;5019731;28;20758;-83
2021/05/13 17:34:14;;;;;;;1.83;0.80;;;17.30;57.80;;;;;;5005040;28;20124;-88
2021/05/13 17:36:40;;;;;;;2.55;0.80;;;17.30;59.00;;;;;;5015572;28;20022;-81
2021/05/13 17:39:07;;;;;;;4.18;0.75;;;17.20;59.00;;;;;;5010508;28;20582;-82
2021/05/13 17:41:34;;;;;;;3.85;0.70;;;17.10;59.40;;;;;;5009344;28;20022;-82
2021/05/13 17:44:00;;;;;;;2.17;0.70;;;17.10;59.60;;;;;;5026724;28;20034;-80
2021/05/13 17:46:27;;;;;;;2.70;0.80;;;17.10;60.00;;;;;;5007451;28;20552;-85
2021/05/13 17:48:52;;;;;;;5.05;1.00;;;17.00;59.30;;;;;;5007193;28;20027;-83
2021/05/13 17:51:18;;;;;;;1.90;0.80;;;17.00;60.30;;;;;;5009268;28;20040;-81
2021/05/13 17:53:44;;;;;;;2.63;0.80;;;17.00;59.90;;;;;;5006377;28;20026;-82
2021/05/13 17:56:10;;;;;;;2.75;0.68;;;16.90;59.60;;;;;;5003261;28;20712;-85
2021/05/13 17:58:35;;;;;;;2.40;0.85;;;16.90;61.00;;;;;;5008442;28;20042;-82
2021/05/13 18:01:01;;;;;;;1.33;0.80;;;16.80;61.60;;;;;;5005714;28;20029;-83
2021/05/13 18:03:28;;;;;;;3.28;0.70;;;16.70;60.00;;;;;;5009575;28;20036;-83
2021/05/13 18:05:56;;;;;;;2.03;0.80;;;16.80;61.10;;;;;;5005302;28;20021;-80
2021/05/13 18:08:23;;;;;;;1.83;1.00;;;16.70;61.30;;;;;;5013952;28;20026;-83
2021/05/13 18:10:51;;;;;;;1.55;0.80;;;16.70;61.10;;;;;;5009559;28;20040;-88
2021/05/13 18:13:17;;;;;;;1.98;0.70;;;16.60;60.20;;;;;;5010592;28;20061;-87
2021/05/13 18:15:43;;;;;;;1.15;0.80;;;16.50;59.40;;;;;;5014331;28;20036;-79
2021/05/13 18:18:09;;;;;;;1.33;0.65;;;16.50;59.60;;;;;;5021822;28;20034;-87
2021/05/13 18:20:35;;;;;;;1.67;0.68;;;16.50;59.60;;;;;;5011270;28;20037;-80
2021/05/13 18:23:03;;;;;;;1.88;0.75;;;16.40;61.20;;;;;;5022821;28;20469;-85
2021/05/13 18:25:29;;;;;;;3.00;0.88;;;16.40;61.20;;;;;;5005768;28;20025;-81
2021/05/13 18:27:55;;;;;;;2.80;1.08;;;16.30;61.30;;;;;;5006616;28;20054;-80
2021/05/13 18:30:28;;;;;;;2.75;0.80;;;16.30;63.00;;;;;;5001322;28;20528;-78
2021/05/13 18:32:55;;;;;;;3.05;0.77;;;16.20;62.50;;;;;;5019686;28;20038;-78
2021/05/13 18:35:21;;;;;;;2.00;0.70;;;16.20;62.00;;;;;;5030701;28;20041;-78
2021/05/13 18:37:48;;;;;;;1.83;0.70;;;16.10;61.80;;;;;;5022271;28;20030;-80
2021/05/13 18:40:26;;;;;;;2.50;0.82;;;16.10;62.10;;;;;;5028078;28;20158;-78
2021/05/13 18:42:53;;;;;;;2.15;0.93;;;15.90;63.90;;;;;;5011684;28;20678;-77
2021/05/13 18:45:23;;;;;;;2.60;1.10;;;15.90;65.40;;;;;;5013128;28;20033;-78
2021/05/13 18:47:49;;;;;;;1.55;0.95;;;15.80;65.30;;;;;;5003425;28;20034;-79
2021/05/13 18:50:18;;;;;;;2.45;1.00;;;15.70;65.90;;;;;;5002039;28;20030;-78
2021/05/13 18:52:44;;;;;;;1.30;0.75;;;15.70;65.20;;;;;;5003939;28;20026;-81
2021/05/13 18:55:16;;;;;;;3.25;1.05;;;15.60;66.20;;;;;;5001160;28;20053;-80
2021/05/13 18:57:42;;;;;;;3.45;0.80;;;15.60;63.40;;;;;;5006727;28;20096;-79
2021/05/13 19:00:14;;;;;;;4.55;0.73;;;15.60;62.60;;;;;;5014841;28;20022;-76
2021/05/13 19:02:40;;;;;;;2.25;0.80;;;15.60;62.60;;;;;;5007285;28;20075;-81
2021/05/13 19:05:07;;;;;;;3.70;0.88;;;15.50;61.10;;;;;;5009981;28;20022;-77
2021/05/13 19:07:37;;;;;;;2.20;0.82;;;15.50;60.70;;;;;;5003531;28;20072;-78
2021/05/13 19:10:35;;;;;;;1.92;0.63;;;15.50;60.60;;;;;;5004896;28;20046;-77
2021/05/13 19:13:02;;;;;;;2.78;0.95;;;15.40;62.00;;;;;;5005351;28;21754;-77
2021/05/13 19:15:27;;;;;;;2.60;1.00;;;15.30;62.60;;;;;;5003819;28;20042;-78
2021/05/13 19:17:53;;;;;;;1.42;0.70;;;15.20;62.50;;;;;;5023142;28;20041;-79
2021/05/13 19:20:19;;;;;;;0.95;0.63;;;15.10;63.90;;;;;;5017890;28;20037;-77
2021/05/13 19:22:45;;;;;;;1.75;0.88;;;15.10;64.80;;;;;;5001737;28;20532;-77
2021/05/13 19:25:13;;;;;;;2.10;0.82;;;15.00;65.00;;;;;;4998031;28;20088;-78
2021/05/13 19:27:43;;;;;;;1.50;0.88;;;14.90;65.30;;;;;;5015211;28;20588;-79
2021/05/13 19:30:22;;;;;;;2.03;0.70;;;14.90;65.20;;;;;;4997185;28;20034;-78
2021/05/13 19:35:32;;;;;;;2.60;0.90;;;14.70;64.80;;;;;;4998253;28;20036;-81
2021/05/13 19:37:58;;;;;;;3.17;0.90;;;14.60;65.10;;;;;;5022245;28;20034;-81
2021/05/13 19:40:25;;;;;;;1.65;0.88;;;14.60;65.50;;;;;;5003880;28;20078;-81
2021/05/13 19:42:50;;;;;;;1.95;0.75;;;14.60;65.60;;;;;;4999523;28;20034;-81
2021/05/13 19:45:17;;;;;;;1.88;0.68;;;14.60;65.60;;;;;;5008920;28;20037;-82
2021/05/13 19:47:44;;;;;;;1.92;1.02;;;14.50;66.90;;;;;;5005194;28;20480;-81
2021/05/13 19:50:12;;;;;;;1.95;1.00;;;14.30;65.80;;;;;;5006990;28;20034;-81
2021/05/13 19:52:39;;;;;;;2.75;0.82;;;14.30;66.70;;;;;;4997944;28;20026;-81
2021/05/13 19:55:06;;;;;;;2.20;0.75;;;14.20;67.80;;;;;;4999226;28;20128;-80
2021/05/13 19:57:32;;;;;;;2.38;0.90;;;14.20;67.20;;;;;;5005927;28;20026;-82